Weather reports worldwide

Advertisment
Paganella, Italy (16022): temperature & dewpoint: 17.07.2019 10:00:00 - 23.07.2019 10:00:00 (CEST)Paganella, Italy (16022): wind speed: 17.07.2019 10:00:00 - 23.07.2019 10:00:00 (CEST)Paganella, Italy (16022): wind direction: 17.07.2019 10:00:00 - 23.07.2019 10:00:00 (CEST)Paganella, Italy (16022): visibility: 17.07.2019 10:00:00 - 23.07.2019 10:00:00 (CEST)Paganella, Italy (16022): sunshine duration: 17.07.2019 10:00:00 - 23.07.2019 10:00:00 (CEST)
Date & Time tt [°C] td [°C] ff [km/h] ff [kn] dd vv [km] sd [min]
23.07.2019 10:00:00 - - - - - - -
23.07.2019 09:00:00 15,0 11,2 8 4 N 30 60
23.07.2019 08:00:00 13,8 10,6 9 5 N 30 60
23.07.2019 07:00:00 13,0 10,5 5 3 N 30 12
23.07.2019 06:00:00 12,4 11,6 8 4 N 30 0
23.07.2019 05:00:00 12,8 12,0 0 0 N 10 -
23.07.2019 04:00:00 13,0 11,9 5 3 N 25 -
23.07.2019 03:00:00 13,2 11,6 8 4 N 25 -
23.07.2019 02:00:00 13,8 11,1 8 4 N 25 -
23.07.2019 01:00:00 14,0 10,4 8 4 N 25 -
23.07.2019 00:00:00 14,4 11,9 5 3 N 20 -
22.07.2019 23:00:00 15,0 12,1 0 0 N 20 -
22.07.2019 22:00:00 15,2 11,4 0 0 N 30 0
22.07.2019 21:00:00 15,8 10,8 8 4 WSW 30 0
22.07.2019 20:00:00 17,4 10,8 11 6 WSW 30 54
22.07.2019 19:00:00 17,8 11,1 11 6 WSW 30 60
22.07.2019 18:00:00 18,6 10,7 8 4 S 30 60
22.07.2019 17:00:00 18,2 10,3 9 5 WSW 30 60
22.07.2019 16:00:00 17,4 9,6 9 5 WSW 20 48
22.07.2019 15:00:00 16,2 11,8 8 4 WSW 30 24
22.07.2019 14:00:00 15,4 12,0 4 2 N 20 6
22.07.2019 13:00:00 15,4 11,6 4 2 S 40 12
22.07.2019 12:00:00 15,4 12,0 4 2 N 40 6
22.07.2019 11:00:00 15,0 12,9 0 0 N 20 48
22.07.2019 10:00:00 14,6 12,3 5 3 N 2,5 30
22.07.2019 09:00:00 14,2 11,9 5 3 N 2,5 30
22.07.2019 08:00:00 13,2 10,7 4 2 N 10 0
22.07.2019 07:00:00 12,6 10,8 5 3 N 10 0
22.07.2019 06:00:00 12,0 10,4 5 3 N 10 0
22.07.2019 05:00:00 12,0 9,0 0 0 N 30 -
22.07.2019 04:00:00 12,0 9,4 8 4 SSW 30 -
22.07.2019 03:00:00 12,4 9,4 0 0 N 30 -
22.07.2019 02:00:00 12,8 9,1 4 2 N 30 -
22.07.2019 01:00:00 13,0 8,3 5 3 N 30 -
22.07.2019 00:00:00 13,4 7,8 8 4 N 30 -
21.07.2019 23:00:00 13,6 7,2 9 5 N 30 -
21.07.2019 22:00:00 14,0 6,8 5 3 N 30 0
21.07.2019 21:00:00 14,4 5,8 0 0 N 30 0
21.07.2019 20:00:00 15,0 6,6 0 0 N 30 42
21.07.2019 19:00:00 14,6 5,7 5 3 S 30 54
21.07.2019 18:00:00 14,8 8,1 5 3 NNE 20 60
21.07.2019 17:00:00 14,6 7,2 5 3 NNE 20 60
21.07.2019 16:00:00 14,0 9,2 4 2 N 20 30
21.07.2019 15:00:00 14,0 11,0 11 6 WSW 10 0
21.07.2019 14:00:00 15,2 12,0 11 6 SW 0,9 42
21.07.2019 13:00:00 14,2 11,7 0 0 N 0,9 36
21.07.2019 12:00:00 14,0 11,7 0 0 N 0,9 18
21.07.2019 11:00:00 14,2 11,7 5 3 S 0,9 24
21.07.2019 10:00:00 13,0 10,9 0 0 N 0,9 42
21.07.2019 09:00:00 11,6 10,4 11 6 SW 10 24
21.07.2019 08:00:00 11,0 10,2 13 7 SW 10 0
21.07.2019 07:00:00 10,7 9,0 13 7 SW 13 0
21.07.2019 06:00:00 10,0 8,4 11 6 SW 13 0
21.07.2019 05:00:00 10,2 8,1 11 6 SSW 13 -
21.07.2019 04:00:00 11,0 8,9 9 5 WSW 12 -
21.07.2019 03:00:00 10,6 8,7 8 4 SW 15 -
21.07.2019 02:00:00 10,4 8,5 9 5 SW 15 -
21.07.2019 01:00:00 11,0 9,1 9 5 WSW 15 -
21.07.2019 00:00:00 11,4 9,1 0 0 N 10 -
20.07.2019 23:00:00 11,4 9,0 5 3 SSW 10 -
20.07.2019 22:00:00 11,0 10,2 9 5 SSW 0,8 0
20.07.2019 21:00:00 11,8 10,5 22 12 SW 0,2 0
20.07.2019 20:00:00 13,2 11,4 24 13 SW 0,6 54
20.07.2019 19:00:00 14,3 11,3 28 15 SW 0,6 60
20.07.2019 18:00:00 15,0 11,2 29 16 WSW 10 54
20.07.2019 17:00:00 15,0 10,6 16 9 SW 15 60
20.07.2019 16:00:00 16,0 10,7 13 7 SW 15 60
20.07.2019 15:00:00 16,6 10,7 11 6 WSW 15 60
20.07.2019 14:00:00 15,8 11,4 18 10 SSW 10 54
20.07.2019 13:00:00 13,8 10,4 11 6 SSW 0,9 36
20.07.2019 12:00:00 13,0 10,0 5 3 SSW 0,9 30
20.07.2019 11:00:00 11,8 9,4 0 0 N 0,6 18
20.07.2019 10:00:00 10,7 8,8 5 3 SW 0,9 0
20.07.2019 09:00:00 10,7 8,8 0 0 N 0,1 6
20.07.2019 08:00:00 9,9 8,5 0 0 N 0,9 6
20.07.2019 07:00:00 9,4 8,6 5 3 SSW 0,1 0
20.07.2019 06:00:00 9,0 8,2 5 3 S 0,1 0
20.07.2019 05:00:00 9,2 8,3 0 0 N 0,9 -
20.07.2019 04:00:00 9,2 8,4 15 8 SSW - -
20.07.2019 03:00:00 9,4 9,4 13 7 SSW - -
20.07.2019 02:00:00 9,4 9,4 11 6 SSW - -
20.07.2019 01:00:00 9,6 9,6 13 7 SSW - -
20.07.2019 00:00:00 9,6 9,6 16 9 SW - -
19.07.2019 23:00:00 9,9 9,9 18 10 SSW - -
19.07.2019 22:00:00 10,1 10,1 18 10 SW - 0
19.07.2019 21:00:00 11,1 9,9 21 11 SW 1,1 0
19.07.2019 20:00:00 12,6 10,3 28 15 SW 1,2 18
19.07.2019 19:00:00 12,8 8,7 9 5 SW 40 12
19.07.2019 18:00:00 14,6 8,6 11 6 SSW 40 60
19.07.2019 17:00:00 14,0 8,6 0 0 N 50 42
19.07.2019 16:00:00 13,4 8,1 9 5 SW 50 12
19.07.2019 15:00:00 13,2 6,3 11 6 SW 50 6
19.07.2019 14:00:00 15,0 6,1 21 11 SSW 60 60
19.07.2019 13:00:00 14,8 6,6 5 3 SW 50 60
19.07.2019 12:00:00 13,6 8,2 5 3 SW 50 60
19.07.2019 11:00:00 12,6 8,9 0 0 N 50 54
19.07.2019 10:00:00 12,2 8,7 0 0 N 50 42
19.07.2019 09:00:00 10,8 7,9 0 0 N 50 60
19.07.2019 08:00:00 9,9 7,2 0 0 N 50 42
19.07.2019 07:00:00 8,9 6,4 0 0 N 50 0
19.07.2019 06:00:00 8,4 6,2 0 0 N 40 0
19.07.2019 05:00:00 8,3 6,1 0 0 N 40 -
19.07.2019 04:00:00 8,6 6,1 5 3 N 40 -
19.07.2019 03:00:00 9,0 5,9 5 3 N 50 -
19.07.2019 02:00:00 9,2 5,2 8 4 N 50 -
19.07.2019 01:00:00 9,2 4,2 9 5 N 60 -
19.07.2019 00:00:00 9,8 3,5 8 4 N 60 -
18.07.2019 23:00:00 10,0 2,6 5 3 N 60 -
18.07.2019 22:00:00 10,0 2,8 0 0 N 60 0
18.07.2019 21:00:00 10,0 3,7 5 3 N 60 0
18.07.2019 20:00:00 10,2 5,8 15 8 SSW 60 0
18.07.2019 19:00:00 10,2 6,9 18 10 SSW 60 0
18.07.2019 18:00:00 12,4 6,0 24 13 SSW 60 42
18.07.2019 17:00:00 12,0 6,1 5 3 S 50 12
18.07.2019 16:00:00 14,0 7,3 8 4 S 50 42
18.07.2019 15:00:00 13,2 6,6 15 8 SW 50 60
18.07.2019 14:00:00 12,1 5,7 9 5 SW 50 24
18.07.2019 13:00:00 9,8 2,4 0 0 N 50 0
18.07.2019 12:00:00 8,0 3,3 5 3 N 50 0
18.07.2019 11:00:00 7,9 5,0 8 4 SSW 40 0
18.07.2019 10:00:00 8,6 7,8 9 5 SSW 8 0
18.07.2019 09:00:00 10,0 7,9 4 2 S 30 0
18.07.2019 08:00:00 9,6 7,7 0 0 N 25 12
18.07.2019 07:00:00 8,6 5,9 5 3 N 20 0
18.07.2019 06:00:00 8,2 7,1 4 2 S 20 0
18.07.2019 05:00:00 8,4 6,9 5 3 N 15 -
18.07.2019 04:00:00 8,2 7,1 5 3 S 15 -
18.07.2019 03:00:00 8,4 6,7 8 4 SSW 15 -
18.07.2019 02:00:00 8,3 6,6 13 7 SSW 15 -
18.07.2019 01:00:00 8,2 6,5 16 9 SSW 20 -
18.07.2019 00:00:00 8,2 3,8 15 8 SW 25 -
17.07.2019 23:00:00 8,8 5,2 18 10 SSW 25 -
17.07.2019 22:00:00 9,0 7,6 18 10 SSW 25 0
17.07.2019 21:00:00 9,2 7,8 22 12 SSW 25 0
17.07.2019 20:00:00 9,8 8,1 11 6 SSW 25 0
17.07.2019 19:00:00 10,6 8,9 15 8 SSW 25 0
17.07.2019 18:00:00 11,5 8,5 8 4 S 2,0 0
17.07.2019 17:00:00 13,8 9,7 28 15 SW 25 30
17.07.2019 16:00:00 15,0 10,0 26 14 SSW 30 60
17.07.2019 15:00:00 14,6 9,8 26 14 WSW 50 60
17.07.2019 14:00:00 15,0 10,2 18 10 SSW 50 60
17.07.2019 13:00:00 14,2 10,0 13 7 SSW 9 60
17.07.2019 12:00:00 13,2 9,8 9 5 SSW 8 48
17.07.2019 11:00:00 12,8 8,9 11 6 S 3,5 60
17.07.2019 10:00:00 12,6 6,9 11 6 SW 20 60

tt = temperature
td = dewpoint
ff = wind speed
dd = wind direction
vv = visibility
sd = sunshine duration

Next stations